Flight Track Log - Related Links

Times and Time Zones

All times are in EST time to prevent confusion due to time zone crossing. See the AWI42A flight status page for this flight to view local times or setup timezone preferences in your user account.

Time Position Orientation Groundspeed Altitude Reporting Facility
EST Latitude Longitude Course Direction KTS MPH feet Rate Location/Type
Sun 10:57:25 PM 39.8667 -75.2833 232° Southwest 168 193 900  Level Philadelphia TRACON
Sun 10:58:56 PM 39.8167 -75.3667 232° Southwest 207 238 4,500 2,344 Climbing Philadelphia TRACON
Sun 10:59:56 PM 39.7667 -75.3500 166° South 294 338 6,800 1,842 Climbing Philadelphia TRACON
Sun 11:00:50 PM 39.7667 -75.2500 90° East 336 387 8,000 632 Climbing Philadelphia TRACON
Sun 11:01:50 PM 39.8000 -75.1500 67° East 304 350 8,000  Level Philadelphia TRACON
Sun 11:02:50 PM 39.8333 -75.0500 67° East 314 361 8,000  Level Philadelphia TRACON
Sun 11:03:44 PM 39.8833 -74.9667 52° Northeast 313 360 8,000 -45 Level Philadelphia TRACON
Sun 11:05:02 PM 39.9500 -74.8500 53° Northeast 312 359 7,900  Descending Philadelphia TRACON
Sun 11:06:02 PM 40.0167 -74.7667 44° Northeast 308 354 8,000 108 Climbing Philadelphia TRACON
Sun 11:06:53 PM 40.0667 -74.7000 46° Northeast 314 361 8,100 51 Climbing New York TRACON
Sun 11:07:59 PM 40.1333 -74.6000 49° Northeast 311 358 8,100  Level New York TRACON
Sun 11:09:05 PM 40.1833 -74.5167 52° Northeast 310 357 8,100  Level New York TRACON
Sun 11:10:11 PM 40.2500 -74.4333 44° Northeast 307 353 8,100 -476 Level New York TRACON
Sun 11:11:11 PM 40.3167 -74.3667 37° Northeast 301 346 7,100 -500 Descending New York TRACON
Sun 11:12:11 PM 40.3833 -74.2833 44° Northeast 302 348 7,100  Level New York TRACON
Sun 11:13:05 PM 40.4333 -74.2333 37° Northeast 299 344 7,100 -684 Level New York TRACON
Sun 11:14:05 PM 40.5000 -74.1500 44° Northeast 291 335 5,800 -1,400 Descending New York TRACON
Sun 11:15:05 PM 40.5667 -74.1000 30° Northeast 272 313 4,300 -1,350 Descending New York TRACON
Sun 11:16:05 PM 40.6167 -74.0333 45° Northeast 252 290 3,100 -895 Descending New York TRACON
Sun 11:16:59 PM 40.6667 -73.9833 37° Northeast 231 266 2,600 -238 Descending New York TRACON
Sun 11:18:11 PM 40.7167 -73.9333 37° Northeast 165 190 2,600 -273 Level New York TRACON
Sun 11:19:11 PM 40.7167 -73.8833 90° East 152 175 2,000 -1,000 Descending New York TRACON
Sun 11:20:05 PM 40.7333 -73.8333 66° East 139 160 700 -1,444 Descending New York TRACON
Sun 11:22:00 PM 40.7667 -73.8667 30° Northeast  Level FlightAware Approximate
Sun 11:29:00 PM 40.7772 -73.8726 30° Northeast  Level Estimated
Sun 11:30:00 PM 40.7772 -73.8726 30° Northeast  Level Estimated

Login

Don't have an account? Register now (free) for customized features, flight alerts, and more!